Time;durP1;ratioP1;P1;durP2;ratioP2;P2;SDS_P1;SDS_P2;PMS_P1;PMS_P2;Temp;Humidity;BMP_temperature;BMP_pressure;BME280_temperature;BME280_humidity;BME280_pressure;Samples;Min_cycle;Max_cycle;Signal;HPM_P1;HPM_P2
2022/07/03 00:01:00;;;;;;;3.58;3.28;;;22.40;56.80;;;;;;5932277;24;20249;-88
2022/07/03 00:03:32;;;;;;;3.50;3.20;;;22.40;56.80;;;;;;5908080;24;20164;-88
2022/07/03 00:06:15;;;;;;;;;;;;;;;;;;;;;
2022/07/03 00:08:49;;;;;;;3.35;3.13;;;22.40;56.80;;;;;;5925076;24;20184;-88
2022/07/03 00:11:23;;;;;;;3.28;3.03;;;22.40;56.70;;;;;;5968189;24;20160;-88
2022/07/03 00:14:00;;;;;;;3.47;3.20;;;22.40;56.80;;;;;;5939885;24;20156;-88
2022/07/03 00:16:33;;;;;;;3.60;3.30;;;22.40;56.80;;;;;;5875194;24;20659;-88
2022/07/03 00:19:01;;;;;;;3.60;3.30;;;22.30;56.70;;;;;;5863028;24;20166;-88
2022/07/03 00:21:51;;;;;;;3.30;3.10;;;22.40;56.80;;;;;;5886097;24;20193;-88
2022/07/03 00:24:47;;;;;;;3.60;3.30;;;22.40;56.90;;;;;;5857147;24;20222;-89
2022/07/03 00:27:26;;;;;;;3.50;3.20;;;22.40;56.90;;;;;;5805485;24;20249;-87
2022/07/03 00:30:07;;;;;;;3.45;3.15;;;22.40;57.10;;;;;;5790088;24;20144;-88
2022/07/03 00:32:44;;;;;;;3.30;3.08;;;22.30;56.90;;;;;;5779909;24;20509;-88
2022/07/03 00:35:30;;;;;;;3.50;3.20;;;22.40;56.90;;;;;;5805692;24;20160;-88
2022/07/03 00:38:14;;;;;;;3.85;3.55;;;22.40;57.00;;;;;;5789427;24;20172;-87
2022/07/03 00:40:49;;;;;;;3.72;3.42;;;22.40;57.00;;;;;;5752496;24;20167;-88
2022/07/03 00:43:21;;;;;;;3.83;3.53;;;22.40;57.00;;;;;;5807433;24;20167;-88
2022/07/03 00:45:58;;;;;;;3.55;3.25;;;22.30;57.00;;;;;;5884673;24;20191;-88
2022/07/03 00:48:41;;;;;;;3.70;3.40;;;22.30;57.10;;;;;;5886528;24;20260;-88
2022/07/03 00:51:11;;;;;;;3.30;3.00;;;22.30;57.10;;;;;;5907507;24;20192;-88
2022/07/03 00:54:01;;;;;;;3.50;3.20;;;22.30;57.10;;;;;;5908082;24;20155;-88
2022/07/03 00:56:41;;;;;;;3.40;3.20;;;22.30;57.00;;;;;;5836083;24;20238;-88
2022/07/03 00:59:10;;;;;;;3.70;3.40;;;22.30;57.80;;;;;;5858495;24;20194;-88
2022/07/03 01:01:54;;;;;;;3.60;3.30;;;22.30;57.10;;;;;;5785594;24;20168;-88
2022/07/03 01:04:45;;;;;;;3.80;3.50;;;22.30;57.20;;;;;;5836519;24;20156;-88
2022/07/03 01:07:35;;;;;;;3.55;3.25;;;22.30;57.30;;;;;;5858268;24;20190;-88
2022/07/03 01:10:04;;;;;;;3.55;3.25;;;22.30;57.20;;;;;;5836547;24;20231;-87
2022/07/03 01:12:56;;;;;;;3.55;3.25;;;22.30;57.20;;;;;;5858934;24;20162;-88
2022/07/03 01:15:47;;;;;;;3.75;3.45;;;22.30;57.30;;;;;;5804161;24;20176;-88
2022/07/03 01:18:42;;;;;;;;;;;;;;;;;;;;;
2022/07/03 01:21:15;;;;;;;3.72;3.42;;;22.30;57.30;;;;;;5784186;24;20184;-88
2022/07/03 01:24:30;;;;;;;3.60;3.30;;;22.30;57.30;;;;;;5778957;24;20232;-87
2022/07/03 01:27:07;;;;;;;3.60;3.30;;;22.30;57.30;;;;;;5779501;24;20192;-88
2022/07/03 01:30:02;;;;;;;3.33;3.10;;;22.30;57.40;;;;;;5789847;24;20225;-88
2022/07/03 01:32:46;;;;;;;;;;;;;;;;;;;;;
2022/07/03 01:35:26;;;;;;;4.25;3.55;;;22.30;57.40;;;;;;5831518;24;20174;-88
2022/07/03 01:38:13;;;;;;;3.90;3.60;;;22.30;57.40;;;;;;5831326;24;20687;-88
2022/07/03 01:40:47;;;;;;;3.70;3.40;;;22.30;57.40;;;;;;5852165;24;20173;-88
2022/07/03 01:43:25;;;;;;;3.80;3.22;;;22.30;57.40;;;;;;5908633;24;20166;-88
2022/07/03 01:46:05;;;;;;;3.90;3.60;;;22.30;57.40;;;;;;5912430;24;20184;-88
2022/07/03 01:48:43;;;;;;;3.75;3.45;;;22.30;57.40;;;;;;5911478;24;20252;-88
2022/07/03 01:51:23;;;;;;;3.45;3.15;;;22.30;57.50;;;;;;5880046;24;20159;-87
2022/07/03 01:53:56;;;;;;;3.42;3.13;;;22.30;57.40;;;;;;5852117;24;20167;-88
2022/07/03 01:56:32;;;;;;;3.90;3.60;;;22.30;57.60;;;;;;5835401;24;20165;-88
2022/07/03 01:59:05;;;;;;;3.88;3.58;;;22.30;57.60;;;;;;5778856;24;20166;-88
2022/07/03 02:01:57;;;;;;;3.67;3.38;;;22.30;57.60;;;;;;5755113;24;20161;-87
2022/07/03 02:04:57;;;;;;;3.67;3.38;;;22.30;57.60;;;;;;5771281;24;20255;-87
2022/07/03 02:07:50;;;;;;;3.83;3.53;;;22.30;57.60;;;;;;5748721;24;20204;-88
2022/07/03 02:10:23;;;;;;;3.78;3.47;;;22.30;57.70;;;;;;5794134;24;20168;-87
2022/07/03 02:12:56;;;;;;;3.65;3.35;;;22.30;57.60;;;;;;5878635;24;20183;-88
2022/07/03 02:15:35;;;;;;;4.13;3.58;;;22.20;57.60;;;;;;5927832;24;20160;-88
2022/07/03 02:18:28;;;;;;;3.60;3.30;;;22.20;57.60;;;;;;5893573;24;20160;-87
2022/07/03 02:21:18;;;;;;;3.65;3.35;;;22.20;57.60;;;;;;5907926;24;20160;-88
2022/07/03 02:24:15;;;;;;;3.70;3.40;;;22.30;57.80;;;;;;5933860;24;20160;-89
2022/07/03 02:27:09;;;;;;;3.55;3.17;;;22.20;57.70;;;;;;5902057;24;20195;-88
2022/07/03 02:29:56;;;;;;;3.30;3.00;;;22.30;57.70;;;;;;5895087;24;20247;-88
2022/07/03 02:32:33;;;;;;;3.58;3.28;;;22.30;57.70;;;;;;5889693;24;20518;-88
2022/07/03 02:35:21;;;;;;;3.90;3.60;;;22.30;57.80;;;;;;5868991;24;20186;-88
2022/07/03 02:38:05;;;;;;;3.70;3.40;;;22.20;57.70;;;;;;5887735;24;20167;-88
2022/07/03 02:40:49;;;;;;;3.55;3.25;;;22.20;57.90;;;;;;5916784;24;20180;-88
2022/07/03 02:43:49;;;;;;;3.63;3.33;;;22.30;57.80;;;;;;5939799;24;20168;-87
2022/07/03 02:49:53;;;;;;;3.67;3.38;;;22.20;57.80;;;;;;5830906;24;20167;-88
2022/07/03 02:52:41;;;;;;;3.50;3.20;;;22.20;57.80;;;;;;5809161;24;20199;-87
2022/07/03 02:55:32;;;;;;;3.45;3.15;;;22.20;57.90;;;;;;5809041;24;20167;-88
2022/07/03 02:58:30;;;;;;;3.50;3.20;;;22.20;57.80;;;;;;5806231;24;20168;-88
2022/07/03 03:01:11;;;;;;;3.88;3.58;;;22.20;58.00;;;;;;5929135;24;20208;-87
2022/07/03 03:04:05;;;;;;;3.80;3.50;;;22.20;57.90;;;;;;5944398;24;20218;-87
2022/07/03 03:06:44;;;;;;;3.70;3.40;;;22.20;58.00;;;;;;5947506;24;20265;-87
2022/07/03 03:09:25;;;;;;;3.63;3.33;;;22.20;58.00;;;;;;5944206;24;20152;-87
2022/07/03 03:11:53;;;;;;;3.45;3.15;;;22.20;58.00;;;;;;5946319;24;20152;-87
2022/07/03 03:14:23;;;;;;;3.80;3.50;;;22.10;58.10;;;;;;5944840;24;20156;-87
2022/07/03 03:16:57;;;;;;;3.78;3.47;;;22.20;58.00;;;;;;5943342;24;20155;-88
2022/07/03 03:19:25;;;;;;;3.38;3.08;;;22.20;58.00;;;;;;5966006;24;20205;-87
2022/07/03 03:22:04;;;;;;;3.67;3.38;;;22.10;58.00;;;;;;5911430;24;20252;-87
2022/07/03 03:24:36;;;;;;;3.45;3.15;;;22.20;58.10;;;;;;5885070;24;20224;-87
2022/07/03 03:27:03;;;;;;;3.75;3.45;;;22.10;58.00;;;;;;5939400;24;20200;-87
2022/07/03 03:29:39;;;;;;;3.67;3.38;;;22.20;58.10;;;;;;5938012;23;20182;-87
2022/07/03 03:32:08;;;;;;;3.60;3.30;;;22.20;58.20;;;;;;5998767;23;20246;-88
2022/07/03 03:34:42;;;;;;;3.97;3.60;;;22.20;58.10;;;;;;5961811;24;20175;-87
2022/07/03 03:37:09;;;;;;;4.00;3.53;;;22.10;58.20;;;;;;5914639;24;20177;-87
2022/07/03 03:39:40;;;;;;;3.70;3.40;;;22.20;58.30;;;;;;5961867;24;20167;-87
2022/07/03 03:42:12;;;;;;;3.65;3.35;;;22.20;58.20;;;;;;5939398;24;20168;-87
2022/07/03 03:44:41;;;;;;;3.55;3.25;;;22.20;58.20;;;;;;5976722;24;20156;-87
2022/07/03 03:47:14;;;;;;;3.63;3.33;;;22.20;58.10;;;;;;5990641;24;20184;-87
2022/07/03 03:50:06;;;;;;;3.63;3.10;;;22.30;58.20;;;;;;5996628;23;20214;-87
2022/07/03 03:52:34;;;;;;;3.90;3.60;;;22.20;58.70;;;;;;5975378;24;20183;-87
2022/07/03 03:55:04;;;;;;;3.22;3.03;;;22.30;58.10;;;;;;5964684;24;20299;-88
2022/07/03 03:57:47;;;;;;;3.63;3.33;;;22.30;58.10;;;;;;5964930;24;20648;-87
2022/07/03 04:00:24;;;;;;;3.70;3.40;;;22.30;58.10;;;;;;5912673;24;20205;-88
2022/07/03 04:02:56;;;;;;;3.70;3.40;;;22.30;58.00;;;;;;5866982;24;20169;-87
2022/07/03 04:05:43;;;;;;;3.47;3.17;;;22.30;58.10;;;;;;5897358;24;20161;-88
2022/07/03 04:08:15;;;;;;;3.92;3.63;;;22.30;58.00;;;;;;5885416;24;20190;-88
2022/07/03 04:10:49;;;;;;;3.42;3.13;;;22.40;58.00;;;;;;5858947;24;20182;-88
2022/07/03 04:13:23;;;;;;;3.25;2.95;;;22.40;58.00;;;;;;5835922;24;20159;-87
2022/07/03 04:15:56;;;;;;;3.47;3.17;;;22.40;57.90;;;;;;5885766;24;20211;-87
2022/07/03 04:18:36;;;;;;;3.50;3.20;;;22.40;58.00;;;;;;5868804;24;20169;-87
2022/07/03 04:21:13;;;;;;;3.45;3.15;;;22.40;58.00;;;;;;5874295;24;20158;-87
2022/07/03 04:23:46;;;;;;;3.30;3.00;;;22.40;58.00;;;;;;5927875;24;20163;-87
2022/07/03 04:26:16;;;;;;;3.85;3.40;;;22.40;58.00;;;;;;5942316;24;20152;-87
2022/07/03 04:28:45;;;;;;;3.60;3.30;;;22.40;57.90;;;;;;5922711;24;20184;-87
2022/07/03 04:31:17;;;;;;;3.38;3.17;;;22.40;58.00;;;;;;5923182;24;20159;-88
2022/07/03 04:33:45;;;;;;;3.50;3.20;;;22.50;57.80;;;;;;5922043;24;20164;-87
2022/07/03 04:36:16;;;;;;;3.15;2.95;;;22.50;57.70;;;;;;5926173;24;20163;-87
2022/07/03 04:38:47;;;;;;;3.85;3.55;;;22.50;57.80;;;;;;5949573;24;20159;-87
2022/07/03 04:41:19;;;;;;;3.65;3.35;;;22.40;57.80;;;;;;5927795;24;20215;-86
2022/07/03 04:43:46;;;;;;;3.72;3.42;;;22.50;57.80;;;;;;5937619;24;20157;-87
2022/07/03 04:46:15;;;;;;;3.22;3.00;;;22.50;57.80;;;;;;5938672;24;20220;-87
2022/07/03 04:48:48;;;;;;;3.53;3.22;;;22.50;57.80;;;;;;6049664;23;20244;-87
2022/07/03 04:51:16;;;;;;;3.60;3.30;;;22.50;57.70;;;;;;6000120;23;20151;-87
2022/07/03 04:53:54;;;;;;;3.60;3.30;;;22.50;57.70;;;;;;6000152;23;20159;-87
2022/07/03 04:56:24;;;;;;;3.70;3.40;;;22.50;57.60;;;;;;5969037;24;20530;-88
2022/07/03 04:58:52;;;;;;;3.50;3.20;;;22.60;57.80;;;;;;5885410;24;20158;-88
2022/07/03 05:01:18;;;;;;;3.80;3.50;;;22.50;57.60;;;;;;5902222;24;20219;-87
2022/07/03 05:03:58;;;;;;;3.47;3.17;;;22.50;57.60;;;;;;5967313;24;20168;-87
2022/07/03 05:06:26;;;;;;;3.55;3.25;;;22.60;57.80;;;;;;5944559;24;20155;-89
2022/07/03 05:08:55;;;;;;;3.10;2.90;;;22.50;57.60;;;;;;5912149;24;20162;-87
2022/07/03 05:11:22;;;;;;;3.20;2.92;;;22.60;57.70;;;;;;5912233;24;20222;-87
2022/07/03 05:14:03;;;;;;;;;;;;;;;;;;;;;
2022/07/03 05:16:44;;;;;;;3.70;3.40;;;22.60;57.70;;;;;;5784300;24;20187;-87
2022/07/03 05:19:15;;;;;;;3.45;3.15;;;22.60;57.60;;;;;;5785007;24;20160;-87
2022/07/03 05:21:45;;;;;;;3.00;2.80;;;22.70;57.60;;;;;;5783956;24;20620;-88
2022/07/03 05:24:24;;;;;;;3.30;3.00;;;22.70;57.60;;;;;;5784352;24;20242;-87
2022/07/03 05:26:51;;;;;;;3.20;3.00;;;22.80;57.50;;;;;;5784981;24;20223;-87
2022/07/03 05:29:18;;;;;;;3.20;3.00;;;22.70;57.50;;;;;;5834688;24;20542;-87
2022/07/03 05:31:51;;;;;;;3.72;3.42;;;22.70;57.50;;;;;;5854320;24;20155;-87
2022/07/03 05:34:22;;;;;;;3.05;2.85;;;22.70;57.60;;;;;;5855368;24;20155;-87
2022/07/03 05:36:53;;;;;;;3.50;3.20;;;22.70;57.50;;;;;;5855291;24;20155;-87
2022/07/03 05:39:37;;;;;;;3.15;2.95;;;22.80;57.40;;;;;;5855203;24;20171;-87
2022/07/03 05:42:14;;;;;;;3.67;3.38;;;22.80;57.40;;;;;;5861677;24;20162;-87
2022/07/03 05:44:51;;;;;;;3.17;2.88;;;22.70;57.50;;;;;;5881554;24;20158;-87
2022/07/03 05:47:20;;;;;;;3.60;3.30;;;22.70;57.50;;;;;;5889691;24;20252;-88
2022/07/03 05:49:51;;;;;;;3.40;3.10;;;22.70;57.60;;;;;;5915726;24;20188;-87
2022/07/03 05:52:26;;;;;;;3.25;3.03;;;22.70;57.60;;;;;;5974550;23;20151;-87
2022/07/03 05:55:29;;;;;;;3.45;3.15;;;22.80;57.70;;;;;;5998514;23;20161;-88
2022/07/03 05:58:04;;;;;;;3.20;2.90;;;22.70;57.60;;;;;;5982310;23;20166;-89
2022/07/03 06:00:39;;;;;;;3.50;3.20;;;22.80;57.50;;;;;;6052297;23;20202;-87
2022/07/03 06:03:12;;;;;;;3.47;3.17;;;22.80;57.30;;;;;;6121861;23;20151;-86
2022/07/03 06:05:40;;;;;;;3.28;2.97;;;22.80;57.40;;;;;;6170347;23;20139;-88
2022/07/03 06:08:06;;;;;;;3.25;3.05;;;22.90;57.30;;;;;;6120454;23;20229;-88
2022/07/03 06:10:33;;;;;;;3.53;3.22;;;22.90;57.10;;;;;;6144564;23;20575;-88
2022/07/03 06:13:04;;;;;;;3.28;3.00;;;22.80;57.30;;;;;;6119800;23;20147;-88
2022/07/03 06:15:32;;;;;;;3.30;3.08;;;22.80;57.40;;;;;;6144839;23;20147;-87
2022/07/03 06:17:59;;;;;;;3.40;3.10;;;22.80;57.50;;;;;;6120047;23;20148;-88
2022/07/03 06:20:26;;;;;;;3.67;3.38;;;22.90;57.40;;;;;;6120307;23;20143;-87
2022/07/03 06:22:52;;;;;;;3.42;3.13;;;22.80;57.40;;;;;;6119870;23;20147;-88
2022/07/03 06:25:22;;;;;;;3.75;3.45;;;22.80;57.50;;;;;;6147938;23;20500;-87
2022/07/03 06:27:48;;;;;;;3.50;3.20;;;22.70;57.50;;;;;;6148068;23;20178;-88
2022/07/03 06:30:15;;;;;;;3.40;3.10;;;22.70;57.80;;;;;;6123287;23;20177;-88
2022/07/03 06:32:41;;;;;;;3.35;3.05;;;22.60;57.80;;;;;;6122887;23;20661;-88
2022/07/03 06:35:11;;;;;;;3.38;3.08;;;22.60;57.80;;;;;;6123445;23;20161;-87
2022/07/03 06:37:41;;;;;;;3.65;3.10;;;22.60;57.60;;;;;;6172626;23;20717;-87
2022/07/03 06:40:09;;;;;;;4.25;3.78;;;22.70;57.80;;;;;;6123881;23;20245;-87
2022/07/03 06:42:37;;;;;;;4.07;3.67;;;22.70;57.30;;;;;;6119245;23;20155;-86
2022/07/03 06:45:08;;;;;;;3.50;3.20;;;22.60;57.50;;;;;;6142787;23;20159;-87
2022/07/03 06:47:40;;;;;;;3.60;3.30;;;22.60;57.70;;;;;;6117497;23;20235;-88
2022/07/03 06:50:13;;;;;;;4.07;3.78;;;22.60;57.70;;;;;;6117759;23;20242;-88
2022/07/03 06:52:40;;;;;;;3.80;3.50;;;22.70;57.60;;;;;;6119000;23;20166;-88
2022/07/03 06:55:21;;;;;;;4.07;3.40;;;22.70;57.40;;;;;;6118075;23;20498;-89
2022/07/03 06:57:59;;;;;;;4.40;3.42;;;22.70;57.40;;;;;;6077945;23;20239;-88
2022/07/03 07:00:25;;;;;;;3.40;3.10;;;22.60;57.30;;;;;;6033745;23;20204;-88
2022/07/03 07:02:53;;;;;;;3.92;3.63;;;22.60;57.50;;;;;;6047673;23;20155;-88
2022/07/03 07:05:19;;;;;;;3.92;3.58;;;22.70;57.60;;;;;;5976609;23;20218;-88
2022/07/03 07:07:45;;;;;;;4.45;3.83;;;22.70;57.40;;;;;;5986379;23;20187;-88
2022/07/03 07:10:23;;;;;;;3.67;3.38;;;22.60;57.40;;;;;;5999426;23;20492;-87
2022/07/03 07:12:49;;;;;;;3.97;3.63;;;22.70;57.10;;;;;;5965668;24;20155;-87
2022/07/03 07:15:20;;;;;;;3.60;3.30;;;22.80;56.60;;;;;;5942461;24;20162;-87
2022/07/03 07:17:50;;;;;;;3.50;3.20;;;22.80;56.60;;;;;;5915704;24;20584;-87
2022/07/03 07:20:19;;;;;;;3.55;3.25;;;22.70;57.10;;;;;;5943633;24;20227;-87
2022/07/03 07:22:45;;;;;;;3.60;3.30;;;22.70;57.00;;;;;;5926117;24;20162;-87
2022/07/03 07:25:13;;;;;;;3.63;3.33;;;22.70;56.80;;;;;;5939882;24;20156;-87
2022/07/03 07:27:39;;;;;;;4.57;3.35;;;22.80;57.00;;;;;;5917426;24;20208;-87
2022/07/03 07:30:14;;;;;;;3.42;3.10;;;22.80;56.60;;;;;;5916902;24;20168;-88
2022/07/03 07:32:44;;;;;;;2.97;2.67;;;22.80;56.20;;;;;;5963015;24;20156;-88
2022/07/03 07:35:11;;;;;;;4.45;2.85;;;22.90;56.00;;;;;;5963503;24;20205;-88
2022/07/03 07:37:44;;;;;;;3.65;2.92;;;23.00;55.70;;;;;;5941781;24;20157;-88
2022/07/03 07:40:12;;;;;;;3.67;3.10;;;23.00;55.70;;;;;;5990330;24;20167;-88
2022/07/03 07:42:46;;;;;;;3.40;3.10;;;23.00;55.90;;;;;;5917007;24;20215;-88
2022/07/03 07:45:14;;;;;;;3.42;3.10;;;23.00;55.80;;;;;;6002624;23;20496;-90
2022/07/03 07:47:43;;;;;;;4.38;3.63;;;23.00;55.90;;;;;;6022730;23;20187;-87
2022/07/03 07:50:10;;;;;;;3.63;3.30;;;22.90;56.20;;;;;;5972926;24;20171;-88
2022/07/03 07:52:38;;;;;;;3.50;3.20;;;22.90;56.30;;;;;;6025596;23;20166;-87
2022/07/03 07:55:09;;;;;;;4.47;3.50;;;22.90;56.00;;;;;;6024352;23;20162;-87
2022/07/03 07:57:51;;;;;;;3.97;3.33;;;23.00;55.60;;;;;;6001192;23;20206;-88
2022/07/03 08:00:21;;;;;;;3.45;3.15;;;23.00;55.60;;;;;;5937026;24;20205;-90
2022/07/03 08:05:36;;;;;;;5.07;3.15;;;23.00;55.40;;;;;;5908553;24;20226;-88
2022/07/03 08:08:16;;;;;;;5.43;3.83;;;23.10;55.30;;;;;;5860203;24;20213;-88
2022/07/03 08:10:50;;;;;;;3.97;3.60;;;23.10;55.40;;;;;;5833377;24;20160;-89
2022/07/03 08:13:17;;;;;;;5.78;3.67;;;23.10;55.50;;;;;;5810051;24;20164;-88
2022/07/03 08:16:17;;;;;;;3.33;2.78;;;23.10;55.30;;;;;;5811308;24;20175;-88
2022/07/03 08:19:00;;;;;;;3.72;3.35;;;23.20;55.30;;;;;;5817129;24;20509;-88
2022/07/03 08:22:14;;;;;;;3.97;3.35;;;23.20;55.10;;;;;;5834931;24;20692;-88
2022/07/03 08:24:45;;;;;;;4.38;3.97;;;23.20;55.20;;;;;;5823998;24;20239;-88
2022/07/03 08:27:32;;;;;;;3.58;3.28;;;23.10;55.30;;;;;;5828218;24;20199;-88
2022/07/03 08:29:58;;;;;;;5.65;3.55;;;23.10;55.30;;;;;;5799773;24;20167;-89
2022/07/03 08:32:30;;;;;;;3.88;3.42;;;23.10;55.00;;;;;;5809426;24;20151;-88
2022/07/03 08:35:01;;;;;;;3.90;3.53;;;23.10;55.30;;;;;;5886661;24;20222;-88
2022/07/03 08:37:31;;;;;;;3.08;2.88;;;23.10;55.10;;;;;;5911305;24;20157;-91
2022/07/03 08:40:04;;;;;;;4.00;3.30;;;23.20;54.90;;;;;;5913809;24;20161;-89
2022/07/03 08:42:36;;;;;;;5.63;3.67;;;23.20;54.30;;;;;;5938669;24;20232;-86
2022/07/03 08:45:26;;;;;;;5.30;3.28;;;23.20;54.70;;;;;;5920629;23;20164;-88
2022/07/03 08:48:14;;;;;;;3.88;3.00;;;23.30;54.40;;;;;;5963094;24;20637;-86
2022/07/03 08:51:50;;;;;;;;;;;;;;;;;;;;;
2022/07/03 08:54:50;;;;;;;5.68;2.55;;;23.30;54.20;;;;;;5881941;24;20614;-88
2022/07/03 09:04:30;;;;;;;;;;;;;;;;;;;;;
2022/07/03 09:07:06;;;;;;;3.70;3.30;;;23.40;54.00;;;;;;5695064;25;20225;-87
2022/07/03 09:09:40;;;;;;;3.63;2.85;;;23.50;53.80;;;;;;5649781;25;20159;-87
2022/07/03 09:12:30;;;;;;;3.70;3.30;;;23.50;53.60;;;;;;5624867;25;20246;-88
2022/07/03 09:15:51;;;;;;;;;;;;;;;;;;;;;
2022/07/03 09:22:09;;;;;;;5.80;2.35;;;23.50;53.50;;;;;;5599016;25;20228;-88
2022/07/03 09:24:41;;;;;;;4.82;2.67;;;23.50;52.80;;;;;;5650215;25;20176;-87
2022/07/03 09:27:26;;;;;;;5.85;3.00;;;23.50;52.50;;;;;;5605172;25;20655;-88
2022/07/03 09:29:59;;;;;;;4.07;2.70;;;23.50;52.40;;;;;;5649047;25;20163;-87
2022/07/03 09:32:43;;;;;;;3.72;3.05;;;23.50;52.30;;;;;;5676329;25;20171;-87
2022/07/03 09:35:30;;;;;;;3.90;2.78;;;23.60;52.30;;;;;;5676205;25;20601;-87
2022/07/03 09:38:08;;;;;;;4.63;2.80;;;23.60;52.70;;;;;;5742450;24;20170;-87
2022/07/03 09:41:10;;;;;;;5.53;2.35;;;23.50;52.40;;;;;;5752524;24;20165;-88
2022/07/03 09:43:36;;;;;;;4.53;3.42;;;23.60;52.40;;;;;;5778463;24;20294;-86
2022/07/03 09:46:35;;;;;;;5.75;3.20;;;23.60;52.70;;;;;;5804883;24;20163;-87
2022/07/03 09:49:13;;;;;;;3.33;2.13;;;23.60;52.60;;;;;;5829504;24;20174;-85
2022/07/03 09:52:19;;;;;;;3.42;2.30;;;23.60;52.00;;;;;;5785076;24;20163;-87
2022/07/03 09:54:51;;;;;;;2.30;2.10;;;23.60;52.00;;;;;;5780293;24;20495;-89
2022/07/03 09:57:32;;;;;;;4.57;3.00;;;23.60;51.80;;;;;;5779182;24;20167;-87
2022/07/03 10:00:24;;;;;;;5.50;3.22;;;23.60;52.10;;;;;;5911308;23;20191;-88
2022/07/03 10:03:41;;;;;;;;;;;;;;;;;;;;;
2022/07/03 11:17:18;;;;;;;3.67;2.55;;;23.90;50.10;;;;;;6202693;23;20258;-87
2022/07/03 11:22:52;;;;;;;2.90;2.53;;;23.90;50.00;;;;;;6036094;23;20193;-87
2022/07/03 11:25:28;;;;;;;2.60;2.40;;;23.80;49.80;;;;;;6055195;23;20560;-88
2022/07/03 11:28:09;;;;;;;3.85;2.50;;;23.90;49.40;;;;;;6078076;23;20233;-90
2022/07/03 11:30:44;;;;;;;2.50;2.30;;;24.00;49.20;;;;;;6003834;23;20154;-86
2022/07/03 11:34:04;;;;;;;2.40;2.20;;;24.00;48.90;;;;;;5999208;23;20151;-90
2022/07/03 11:36:35;;;;;;;3.78;2.53;;;23.90;48.90;;;;;;5965385;24;20164;-88
2022/07/03 11:39:26;;;;;;;2.63;2.35;;;23.90;48.70;;;;;;5985418;24;20322;-87
2022/07/03 11:41:54;;;;;;;2.42;2.22;;;23.90;48.70;;;;;;5958094;24;20164;-89
2022/07/03 11:44:20;;;;;;;2.85;2.63;;;23.90;48.60;;;;;;5954884;24;20160;-89
2022/07/03 11:46:49;;;;;;;2.63;2.17;;;24.00;48.70;;;;;;5955802;24;20160;-89
2022/07/03 11:49:26;;;;;;;3.10;2.05;;;23.90;48.60;;;;;;5949019;24;20528;-90
2022/07/03 11:52:01;;;;;;;2.60;2.10;;;23.90;48.50;;;;;;5982661;24;20162;-88
2022/07/03 11:54:31;;;;;;;4.07;2.20;;;24.00;48.30;;;;;;5963568;24;20187;-88
2022/07/03 11:56:57;;;;;;;2.35;2.10;;;24.00;48.20;;;;;;5988280;24;20159;-89
2022/07/03 11:59:46;;;;;;;3.88;2.40;;;24.00;48.00;;;;;;5988097;23;20166;-88
2022/07/03 12:02:48;;;;;;;2.90;1.90;;;24.00;48.10;;;;;;5965141;24;20184;-88
2022/07/03 12:05:27;;;;;;;2.33;2.13;;;24.00;47.90;;;;;;5963909;24;20188;-86
2022/07/03 12:08:07;;;;;;;3.25;2.50;;;24.00;48.10;;;;;;5957275;24;20183;-88
2022/07/03 12:10:49;;;;;;;3.35;2.35;;;24.00;48.00;;;;;;5991928;24;20140;-87
2022/07/03 12:13:23;;;;;;;2.75;2.10;;;24.00;47.80;;;;;;5965255;24;20235;-88
2022/07/03 12:15:48;;;;;;;2.65;2.45;;;24.00;47.80;;;;;;5916444;24;20156;-87
2022/07/03 12:18:16;;;;;;;2.58;2.05;;;24.00;47.80;;;;;;5918900;24;20211;-87
2022/07/03 12:20:41;;;;;;;2.67;2.47;;;24.00;47.70;;;;;;5920103;24;20160;-87
2022/07/03 12:23:08;;;;;;;3.45;2.35;;;24.00;48.50;;;;;;5938360;24;20167;-86
2022/07/03 12:26:34;;;;;;;2.80;2.60;;;24.00;47.50;;;;;;5967182;24;20162;-89
2022/07/03 12:33:08;;;;;;;2.72;2.53;;;24.00;47.50;;;;;;5851025;24;20168;-88
2022/07/03 14:33:36;;;;;;;2.38;2.17;;;24.30;47.50;;;;;;6150523;23;20271;-88
2022/07/03 14:36:08;;;;;;;3.45;2.47;;;24.30;47.50;;;;;;6112496;23;20147;-89
2022/07/03 14:38:38;;;;;;;3.30;2.47;;;24.30;47.60;;;;;;6096191;23;20231;-87
2022/07/03 14:41:42;;;;;;;2.70;2.50;;;24.30;47.70;;;;;;6118995;23;20140;-87
2022/07/03 14:44:38;;;;;;;3.22;2.80;;;24.30;47.40;;;;;;5938088;24;20198;-88
2022/07/03 14:50:38;;;;;;;4.78;3.08;;;24.20;47.80;;;;;;5778173;24;20195;-88
2022/07/03 14:57:35;;;;;;;;;;;;;;;;;;;;;
2022/07/03 15:04:11;;;;;;;3.90;3.42;;;24.10;48.70;;;;;;5443968;26;20269;-88
2022/07/03 15:50:58;;;;;;;4.55;3.90;;;24.20;49.90;;;;;;6246328;22;1784539;-90
2022/07/03 15:53:31;;;;;;;4.03;3.72;;;24.20;49.80;;;;;;6267403;22;20155;-89
2022/07/03 15:56:26;;;;;;;3.85;3.28;;;24.30;50.10;;;;;;6199295;23;20145;-90
2022/07/03 15:58:54;;;;;;;4.45;3.85;;;24.30;49.80;;;;;;6174206;23;20146;-88
2022/07/03 16:04:10;;;;;;;3.58;3.28;;;24.30;49.30;;;;;;6200394;23;20160;-88
2022/07/03 16:06:41;;;;;;;3.50;3.28;;;24.30;49.30;;;;;;6172280;23;20191;-89
2022/07/03 16:09:09;;;;;;;5.13;3.70;;;24.30;49.30;;;;;;6197702;23;20159;-89
2022/07/03 16:11:44;;;;;;;3.50;3.20;;;24.30;49.20;;;;;;6172397;23;20632;-88
2022/07/03 16:14:11;;;;;;;3.42;3.13;;;24.20;49.30;;;;;;6194120;23;20169;-88
2022/07/03 16:16:53;;;;;;;3.40;3.10;;;24.30;49.30;;;;;;6167946;23;20154;-88
2022/07/03 16:19:19;;;;;;;2.90;2.70;;;24.20;49.40;;;;;;6167348;23;20157;-88
2022/07/03 16:21:45;;;;;;;3.40;3.10;;;24.20;49.80;;;;;;6107882;23;20530;-89
2022/07/03 16:24:11;;;;;;;3.45;3.15;;;24.30;49.60;;;;;;6127249;23;20235;-89
2022/07/03 16:26:37;;;;;;;3.50;3.20;;;24.20;49.50;;;;;;6072841;23;20653;-88
2022/07/03 16:29:07;;;;;;;3.50;3.20;;;24.20;49.50;;;;;;6073059;23;20165;-89
2022/07/03 16:31:38;;;;;;;3.45;3.15;;;24.10;49.40;;;;;;6039209;23;20190;-88
2022/07/03 16:34:09;;;;;;;4.13;3.30;;;24.10;49.40;;;;;;5987158;23;20163;-89
2022/07/03 16:36:36;;;;;;;3.00;2.80;;;24.10;49.60;;;;;;5986841;23;20150;-88
2022/07/03 16:39:04;;;;;;;3.30;2.90;;;24.10;49.50;;;;;;5987717;23;20159;-89
2022/07/03 16:41:30;;;;;;;3.58;3.28;;;24.10;49.60;;;;;;5987518;23;20169;-89
2022/07/03 16:43:57;;;;;;;3.42;3.13;;;24.10;49.70;;;;;;5985593;23;20186;-89
2022/07/03 16:46:25;;;;;;;4.45;3.20;;;24.00;49.60;;;;;;5959341;24;20159;-90
2022/07/03 16:48:53;;;;;;;5.47;3.40;;;24.00;49.70;;;;;;5958495;24;20251;-89
2022/07/03 16:51:19;;;;;;;3.15;2.80;;;24.00;49.70;;;;;;5982633;23;20187;-89
2022/07/03 16:53:45;;;;;;;3.28;3.00;;;24.00;49.70;;;;;;6040581;23;20157;-89
2022/07/03 16:56:12;;;;;;;3.45;3.15;;;24.00;49.70;;;;;;6067674;23;20604;-87
2022/07/03 16:58:38;;;;;;;2.92;2.72;;;24.00;49.80;;;;;;6127165;23;20148;-88
2022/07/03 17:01:09;;;;;;;3.00;2.80;;;24.00;49.70;;;;;;6108361;23;20178;-89
2022/07/03 17:03:37;;;;;;;3.33;3.03;;;24.00;49.60;;;;;;6165221;23;20544;-87
2022/07/03 17:06:04;;;;;;;3.83;3.10;;;24.00;49.60;;;;;;6256158;22;20177;-88
2022/07/03 17:08:29;;;;;;;3.40;3.10;;;24.00;49.50;;;;;;6236843;22;20148;-88
2022/07/03 17:10:56;;;;;;;3.10;2.90;;;24.00;49.50;;;;;;6239616;22;20198;-88
2022/07/03 17:13:22;;;;;;;3.10;2.90;;;23.90;49.40;;;;;;6238210;22;20144;-87
2022/07/03 17:15:48;;;;;;;3.78;3.30;;;23.90;49.40;;;;;;6238068;22;20144;-87
2022/07/03 17:18:15;;;;;;;2.70;2.50;;;23.90;49.40;;;;;;6318902;22;20446;-87
2022/07/03 17:20:46;;;;;;;2.95;2.72;;;23.90;49.40;;;;;;6237256;22;20140;-87
2022/07/03 17:23:15;;;;;;;3.17;2.80;;;24.00;49.20;;;;;;6257860;22;20151;-90
2022/07/03 17:25:43;;;;;;;3.30;3.00;;;24.00;49.10;;;;;;6232593;22;20509;-89
2022/07/03 17:28:08;;;;;;;2.80;2.60;;;24.00;49.00;;;;;;6234514;22;20148;-88
2022/07/03 17:31:02;;;;;;;3.00;2.80;;;24.00;48.90;;;;;;6232857;22;20171;-88
2022/07/03 17:33:28;;;;;;;2.80;2.60;;;24.00;49.00;;;;;;6257203;22;20152;-89
2022/07/03 17:36:04;;;;;;;2.88;2.63;;;24.00;48.90;;;;;;6232298;22;20144;-88
2022/07/03 17:38:32;;;;;;;3.03;2.83;;;24.00;48.80;;;;;;6232601;22;20151;-90
2022/07/03 17:41:02;;;;;;;3.10;2.90;;;24.00;48.90;;;;;;6232374;22;20144;-88
2022/07/03 17:43:29;;;;;;;2.72;2.53;;;23.90;48.90;;;;;;6282712;22;20526;-88
2022/07/03 17:45:57;;;;;;;3.08;2.83;;;23.90;49.00;;;;;;6256386;22;20150;-87
2022/07/03 17:48:27;;;;;;;3.15;2.78;;;23.90;49.10;;;;;;6256293;22;20160;-89
2022/07/03 17:50:54;;;;;;;2.53;2.33;;;23.90;49.10;;;;;;6256185;22;20184;-89
2022/07/03 17:53:22;;;;;;;2.60;2.40;;;23.90;49.10;;;;;;6231559;22;20202;-88
2022/07/03 17:55:51;;;;;;;2.83;2.63;;;23.80;49.10;;;;;;6256735;22;20207;-90
2022/07/03 17:58:17;;;;;;;2.88;2.67;;;23.90;49.20;;;;;;6231793;22;20246;-88
2022/07/03 18:00:43;;;;;;;2.80;2.60;;;23.90;49.20;;;;;;6256885;22;20218;-88
2022/07/03 18:03:09;;;;;;;2.88;2.67;;;23.80;49.20;;;;;;6231890;22;20145;-89
2022/07/03 18:05:45;;;;;;;2.40;2.20;;;23.80;49.30;;;;;;6231220;22;20140;-88
2022/07/03 18:08:12;;;;;;;2.70;2.50;;;23.80;49.30;;;;;;6256122;22;20148;-88
2022/07/03 18:10:46;;;;;;;2.53;2.33;;;23.80;49.30;;;;;;6257148;22;20548;-89
2022/07/03 18:13:22;;;;;;;3.10;2.80;;;23.90;49.30;;;;;;6231769;22;20184;-89
2022/07/03 18:15:52;;;;;;;3.00;2.80;;;23.80;49.30;;;;;;6257759;22;20155;-87